Fryburg, North Dakota
Current Conditions -  °F | °C
As of 11:56 PM on Wednesday 22 Oct 2014 (Local Time) from KDIK Reporting Station
Clear Clear  
Wind Chill: 39°   Ceiling: Unl
Heat Index: 42°   Visibility: 10mi
Dew Point: 30°   Wind: 5mph
Humidity: 62%   Direction: 250°WSW
Pressure: 29.91"   Gusts: NA
Location:  46.8731°N, 103.138°W
Report Text: KDIK 230556Z AUTO 25004KT 10SM CLR 06/M01 A2991 RMK AO2 SLP131 T00561011 10100 20050 58002
Loading
Personal Weather Stations






























Interactive Weather Map
Tropical Storm Tracking
New forecast layout! Learn more

10-Day Weather Forecast

Advertisements
Track Severe Weather on mobile